Terminal Aerodrome Forecast
Issued by NWS St Louis, MO

Home | Current Version | Previous Version | Text Only | Print | Product List | Glossary Off
Versions: 1 2 3 4 5 6 7 8 9 10 11 12 13 14 15 16 17

000
FTUS43 KLSX 050500
TAFCOU
TAF
KCOU 050520Z 0506/0606 18008KT P6SM BKN080 OVC200
     FM051600 20008G18KT P6SM SCT050
     FM060000 15006KT P6SM SCT250=

USA.gov is the U.S. government's official web portal to all federal, state and local government web resources and services.